Flight Track Log - Related Links

Times and Time Zones

All times are in EDT time to prevent confusion due to time zone crossing. See the SWA385 flight status page for this flight to view local times or setup timezone preferences in your user account.

Time Position Orientation Groundspeed Altitude Reporting Facility
EDT Latitude Longitude Course Direction KTS MPH feet Rate Location/Type
Sat 08:44:19 AM 42.7339 -73.8081 212° Southwest 141 162 1,300  Level Boston Center
Sat 08:45:01 AM 42.7108 -73.8275 212° Southwest 166 191 2,600 2,813 Climbing Boston Center
Sat 08:46:27 AM 42.7744 -73.9081 317° Northwest 259 298 7,300 3,452 Climbing Boston Center
Sat 08:47:27 AM 42.7983 -73.9964 290° West 247 284 11,000 3,750 Climbing Boston Center
Sat 08:48:27 AM 42.8114 -74.0986 280° West 257 296 14,800 3,500 Climbing Boston Center
Sat 08:49:27 AM 42.7647 -74.1539 221° Southwest 248 285 18,000 2,800 Climbing Boston Center
Sat 08:50:27 AM 42.6672 -74.1144 163° South 221 254 20,400 2,650 Climbing Boston Center
Sat 08:51:27 AM 42.5703 -74.0556 156° South 309 356 23,300 2,950 Climbing Boston Center
Sat 08:52:27 AM 42.4689 -73.9967 157° South 363 418 26,300 2,350 Climbing Boston Center
Sat 08:53:27 AM 42.3675 -73.9378 157° South 375 432 28,000 850 Climbing Boston Center
Sat 08:54:27 AM 42.2703 -73.8850 158° South 381 438 28,000  Level Boston Center
Sat 08:55:27 AM 42.1731 -73.8294 157° South 386 444 28,000  Level Boston Center
Sat 08:56:27 AM 42.0736 -73.7908 164° South 386 444 28,000  Level Boston Center
Sat 08:57:27 AM 41.9692 -73.7944 181° South 372 428 28,000  Level Boston Center
Sat 08:59:05 AM 41.8083 -73.8628 198° South 365 420 28,000  Level New York Center
Sat 09:00:05 AM 41.7025 -73.9217 203° Southwest 393 452 28,000  Level New York Center
Sat 09:01:05 AM 41.5969 -73.9778 202° Southwest 408 470 28,000  Level New York Center
Sat 09:02:06 AM 41.4978 -74.0283 201° Southwest 403 464 28,000  Level New York Center
Sat 09:03:07 AM 41.3942 -74.0869 203° Southwest 403 464 28,000  Level New York Center
Sat 09:04:05 AM 41.2864 -74.1425 201° Southwest 403 464 28,000 -252 Level New York Center
Sat 09:05:06 AM 41.1869 -74.1953 202° Southwest 403 464 27,500 -744 Descending New York Center
Sat 09:06:06 AM 41.0897 -74.2425 200° South 403 464 26,500 -744 Descending New York Center
Sat 09:07:07 AM 40.9925 -74.2925 201° Southwest 390 449 26,000 -248 Descending New York Center
Sat 09:08:07 AM 40.8992 -74.3428 202° Southwest 380 437 26,000  Level New York Center
Sat 09:09:06 AM 40.8019 -74.3925 201° Southwest 375 432 26,000  Level New York Center
Sat 09:10:06 AM 40.7344 -74.4875 227° Southwest 364 419 26,000  Level New York Center
Sat 09:11:06 AM 40.6728 -74.5908 232° Southwest 358 412 26,000  Level New York Center
Sat 09:12:06 AM 40.6131 -74.6914 232° Southwest 363 418 26,000 -149 Level New York Center
Sat 09:13:07 AM 40.5472 -74.7914 229° Southwest 363 418 25,700 -645 Descending New York Center
Sat 09:14:07 AM 40.4794 -74.8856 227° Southwest 363 418 24,700 -1,119 Descending New York Center
Sat 09:15:05 AM 40.4069 -74.9931 228° Southwest 368 423 23,500 -1,119 Descending New York Center
Sat 09:16:05 AM 40.3389 -75.0842 226° Southwest 368 423 22,500 -1,000 Descending New York Center
Sat 09:17:05 AM 40.2750 -75.1781 228° Southwest 356 410 21,500 -992 Descending New York Center
Sat 09:18:06 AM 40.2114 -75.2664 227° Southwest 350 403 20,500 -984 Descending New York Center
Sat 09:19:07 AM 40.1517 -75.3522 228° Southwest 339 390 19,500 -763 Descending New York Center
Sat 09:20:04 AM 40.0903 -75.4322 225° Southwest 339 390 19,000 -254 Descending New York Center
Sat 09:21:05 AM 40.0239 -75.5256 227° Southwest 334 384 19,000  Level New York Center
Sat 09:22:07 AM 39.9667 -75.6028 226° Southwest 334 384 19,000  Level New York Center
Sat 09:23:04 AM 39.9019 -75.7011 229° Southwest 334 384 19,000 -305 Level New York Center
Sat 09:24:05 AM 39.8567 -75.7872 236° Southwest 334 384 18,400 -1,639 Descending New York Center
Sat 09:26:18 AM 39.7500 -76.0000 237° Southwest 302 348 13,700 -1,927 Descending Potomac TRACON
Sat 09:27:18 AM 39.7000 -76.0833 232° Southwest 288 331 12,200 -1,158 Descending Potomac TRACON
Sat 09:28:12 AM 39.6667 -76.1667 243° Southwest 270 311 11,500 -900 Descending Potomac TRACON
Sat 09:29:18 AM 39.6000 -76.2167 210° Southwest 262 302 10,400 -992 Descending Potomac TRACON
Sat 09:30:13 AM 39.5500 -76.2833 226° Southwest 255 293 9,500 -991 Descending Potomac TRACON
Sat 09:31:13 AM 39.5000 -76.3333 218° Southwest 247 284 8,500 -1,000 Descending Potomac TRACON
Sat 09:32:07 AM 39.4500 -76.3833 218° Southwest 247 284 7,600 -1,263 Descending Potomac TRACON
Sat 09:33:07 AM 39.3833 -76.4333 210° Southwest 251 289 6,100 -1,600 Descending Potomac TRACON
Sat 09:34:07 AM 39.3167 -76.4333 180° South 257 296 4,400 -1,105 Descending Potomac TRACON
Sat 09:35:01 AM 39.2500 -76.4333 180° South 251 289 4,000 -211 Descending Potomac TRACON
Sat 09:36:01 AM 39.1833 -76.4500 191° South 240 276 4,000 -105 Level Potomac TRACON
Sat 09:36:55 AM 39.1500 -76.4833 218° Southwest 163 188 3,800 -833 Descending Potomac TRACON
Sat 09:37:49 AM 39.1333 -76.5333 247° West 135 155 2,500 -1,050 Descending Potomac TRACON
Sat 09:38:55 AM 39.1333 -76.5833 270° West 127 146 1,700 -667 Descending Potomac TRACON
Sat 09:39:55 AM 39.1333 -76.6167 270° West 121 139 1,100 -684 Descending Potomac TRACON
Sat 09:40:49 AM 39.1500 -76.6500 303° West 138 159 400 -778 Descending Potomac TRACON
Sat 09:42:00 AM 39.1667 -76.6667 270° West  Level FlightAware Approximate
Sat 09:49:00 AM 39.1754 -76.6683 270° West  Level Estimated
Sat 09:50:00 AM 39.1754 -76.6683 270° West  Level Estimated
Sat 09:51:00 AM 39.1754 -76.6683 270° West  Level Estimated

Login

Don't have an account? Register now (free) for customized features, flight alerts, and more!